Terminal Aerodrome Forecast
Issued by NWS Greer, SC

Home | Current Version | Previous Version | Text Only | Print | Product List | Glossary On
Versions: 1 2 3 4 5 6 7 8 9 10 11 12 13 14 15 16
000
FTUS42 KGSP 240553 CCA
TAFGSP
TAF COR
KGSP 240553Z 2406/2506 21011KT P6SM SCT008 OVC012
      TEMPO 2407/2410 BKN008 OVC012
     FM241700 22013G21KT P6SM BKN025
     FM242200 23009KT P6SM SCT250
     FM250000 24004KT P6SM SCT250=

USA.gov is the U.S. government's official web portal to all federal, state and local government web resources and services.